createdAt,value
2023-04-05T00:00:54.398Z,-2.57
2023-04-05T00:05:56.094Z,-2.62
2023-04-05T00:10:57.740Z,-2.67
2023-04-05T00:16:01.296Z,-2.72
2023-04-05T00:21:03.265Z,-2.73
2023-04-05T00:26:04.932Z,-2.64
2023-04-05T00:31:06.618Z,-2.47
2023-04-05T00:36:21.080Z,-2.31
2023-04-05T00:41:22.941Z,-2.13
2023-04-05T00:46:24.675Z,-1.95
2023-04-05T00:51:26.350Z,-1.84
2023-04-05T00:56:28.999Z,-1.82
2023-04-05T01:01:37.817Z,-1.83
2023-04-05T01:07:13.105Z,-1.73
2023-04-05T01:12:21.081Z,-1.88
2023-04-05T01:17:28.395Z,-1.89
2023-04-05T01:23:04.357Z,-1.83
2023-04-05T01:28:34.196Z,-1.73
2023-04-05T01:33:48.350Z,-1.48
2023-04-05T01:38:51.013Z,-1.42
2023-04-05T01:43:52.871Z,-1.46
2023-04-05T01:48:54.735Z,-1.40
2023-04-05T01:53:56.754Z,-1.21
2023-04-05T01:58:58.646Z,-1.30
2023-04-05T02:04:00.613Z,-1.36
2023-04-05T02:09:02.502Z,-1.34
2023-04-05T02:14:04.404Z,-1.06
2023-04-05T02:19:07.025Z,-1.01
2023-04-05T02:24:08.904Z,-1.04
2023-04-05T02:29:10.931Z,-1.02
2023-04-05T02:34:12.749Z,-1.04
2023-04-05T02:39:14.547Z,-0.91
2023-04-05T02:44:16.470Z,-0.84
2023-04-05T02:49:18.245Z,-0.70
2023-04-05T02:54:20.588Z,-0.73
2023-04-05T02:59:23.170Z,-0.82
2023-04-05T03:04:26.989Z,-0.83
2023-04-05T03:09:34.884Z,-0.80
2023-04-05T03:14:41.575Z,-0.81
2023-04-05T03:19:46.455Z,-0.81
2023-04-05T03:24:53.987Z,-0.86
2023-04-05T03:29:57.225Z,-0.89
2023-04-05T03:34:59.555Z,-0.70
2023-04-05T03:40:02.310Z,-0.72
2023-04-05T03:45:06.221Z,-0.57
2023-04-05T03:50:09.111Z,-0.55
2023-04-05T03:55:10.977Z,-0.55
2023-04-05T04:00:17.842Z,-0.49
2023-04-05T04:05:39.331Z,-0.57
2023-04-05T04:10:42.681Z,-0.57
2023-04-05T04:15:55.426Z,-0.63
2023-04-05T04:21:07.103Z,-0.76
2023-04-05T04:26:37.662Z,-0.95
2023-04-05T04:32:07.087Z,-0.91
2023-04-05T04:37:37.722Z,-0.91
2023-04-05T04:43:01.745Z,-0.93
2023-04-05T04:48:16.802Z,-0.83
2023-04-05T04:53:28.441Z,-0.70
2023-04-05T04:58:31.229Z,-0.66
2023-04-05T05:03:40.403Z,-0.64
2023-04-05T05:08:42.271Z,-0.66
2023-04-05T05:13:44.836Z,-0.60
2023-04-05T05:18:54.390Z,-0.67
2023-04-05T05:23:59.103Z,-0.50
2023-04-05T05:29:02.342Z,-0.44
2023-04-05T05:34:06.755Z,-0.34
2023-04-05T05:39:10.302Z,-0.45
2023-04-05T05:44:12.125Z,-0.32
2023-04-05T05:49:13.934Z,0.17
2023-04-05T05:54:16.053Z,0.43
2023-04-05T05:59:18.016Z,0.50
2023-04-05T06:04:20.036Z,0.63
2023-04-05T06:09:23.401Z,0.81
2023-04-05T06:14:25.663Z,1.04
2023-04-05T06:19:27.574Z,1.26
2023-04-05T06:24:31.981Z,1.24
2023-04-05T06:29:33.867Z,1.48
2023-04-05T06:34:35.730Z,1.52
2023-04-05T06:39:37.592Z,1.59
2023-04-05T06:44:39.407Z,1.56
2023-04-05T06:49:41.258Z,1.56
2023-04-05T06:54:43.068Z,1.61
2023-04-05T06:59:44.880Z,1.60
2023-04-05T07:04:47.508Z,1.66
2023-04-05T07:09:49.383Z,1.80
2023-04-05T07:14:51.240Z,1.84
2023-04-05T07:19:53.037Z,2.14
2023-04-05T07:24:55.656Z,2.38
2023-04-05T07:29:57.619Z,2.22
2023-04-05T07:34:59.430Z,2.68
2023-04-05T07:40:01.237Z,2.93
2023-04-05T07:45:03.411Z,3.07
2023-04-05T07:50:07.180Z,3.05
2023-04-05T07:55:10.077Z,2.72
2023-04-05T08:00:13.479Z,2.57
2023-04-05T08:05:15.898Z,2.71
2023-04-05T08:10:17.854Z,2.71
2023-04-05T08:15:19.731Z,2.92
2023-04-05T08:20:21.504Z,3.03
2023-04-05T08:25:23.324Z,3.06
2023-04-05T08:30:25.132Z,3.55
2023-04-05T08:35:27.049Z,4.14
2023-04-05T08:40:49.447Z,4.23
2023-04-05T08:45:52.841Z,4.25
2023-04-05T08:50:55.769Z,4.54
2023-04-05T08:56:00.774Z,4.71
2023-04-05T09:01:04.857Z,4.63
2023-04-05T09:06:10.258Z,4.54
2023-04-05T09:11:12.749Z,5.01
2023-04-05T09:16:19.010Z,5.01
2023-04-05T09:21:20.989Z,4.75
2023-04-05T09:26:26.389Z,5.24
2023-04-05T09:31:37.459Z,5.32
2023-04-05T09:36:45.864Z,5.43
2023-04-05T09:42:24.811Z,5.29
2023-04-05T09:47:31.375Z,5.06
2023-04-05T09:52:36.839Z,5.53
2023-04-05T09:57:40.519Z,6.04
2023-04-05T10:02:42.575Z,6.58
2023-04-05T10:07:45.133Z,6.47
2023-04-05T10:12:48.123Z,7.59
2023-04-05T10:18:00.893Z,7.92
2023-04-05T10:23:27.918Z,7.65
2023-04-05T10:28:43.365Z,6.98
2023-04-05T10:33:47.933Z,8.85
2023-04-05T10:39:04.395Z,9.17
2023-04-05T10:44:22.639Z,9.92
2023-04-05T10:49:37.766Z,8.25
2023-04-05T10:54:40.780Z,6.77
2023-04-05T10:59:45.331Z,6.89
2023-04-05T11:04:55.657Z,7.84
2023-04-05T11:10:06.024Z,7.72
2023-04-05T11:15:43.320Z,8.04
2023-04-05T11:21:05.609Z,7.61
2023-04-05T11:26:07.461Z,7.18
2023-04-05T11:31:20.574Z,7.12
2023-04-05T11:36:46.167Z,7.37
2023-04-05T11:42:07.299Z,7.51
2023-04-05T11:47:10.780Z,6.91
2023-04-05T11:52:31.459Z,6.56
2023-04-05T11:57:33.276Z,6.67
2023-04-05T12:02:35.385Z,6.60
2023-04-05T12:07:37.435Z,6.59
2023-04-05T12:12:44.662Z,6.34
2023-04-05T12:17:55.355Z,6.31
2023-04-05T12:22:57.797Z,6.01
2023-04-05T12:28:09.111Z,6.33
2023-04-05T12:33:10.982Z,8.35
2023-04-05T12:38:15.961Z,14.72
2023-04-05T12:43:20.111Z,19.06
2023-04-05T12:48:25.875Z,21.70
2023-04-05T12:53:28.827Z,20.94
2023-04-05T12:58:36.359Z,21.17
2023-04-05T13:03:38.202Z,13.89
2023-04-05T13:08:40.085Z,12.00
2023-04-05T13:13:41.903Z,10.67
2023-04-05T13:18:44.448Z,10.41
2023-04-05T13:23:46.286Z,8.47
2023-04-05T13:28:48.124Z,6.92
2023-04-05T13:33:50.075Z,7.01
2023-04-05T13:38:52.038Z,6.79
2023-04-05T13:43:53.889Z,5.89
2023-04-05T13:48:55.840Z,5.48
2023-04-05T13:53:58.131Z,5.15
2023-04-05T13:59:00.047Z,5.22
2023-04-05T14:04:02.141Z,5.06
2023-04-05T14:09:04.936Z,4.99
2023-04-05T14:14:06.904Z,4.94
2023-04-05T14:19:08.895Z,5.10
2023-04-05T14:24:10.875Z,5.65
2023-04-05T14:29:13.127Z,6.16
2023-04-05T14:34:15.167Z,5.82
2023-04-05T14:39:17.041Z,5.73
2023-04-05T14:44:18.926Z,6.87
2023-04-05T14:49:21.599Z,8.62
2023-04-05T14:54:23.452Z,11.19
2023-04-05T14:59:26.381Z,13.40
2023-04-05T15:04:29.017Z,11.99
2023-04-05T15:09:30.899Z,12.98
2023-04-05T15:14:32.792Z,12.35
2023-04-05T15:19:35.600Z,9.94
2023-04-05T15:24:38.206Z,8.31
2023-04-05T15:29:40.059Z,7.64
2023-04-05T15:34:41.985Z,7.05
2023-04-05T15:39:43.874Z,6.87
2023-04-05T15:44:45.832Z,6.59
2023-04-05T15:49:48.756Z,7.04
2023-04-05T15:54:50.639Z,6.17
2023-04-05T15:59:54.452Z,5.45
2023-04-05T16:04:56.345Z,5.00
2023-04-05T16:09:58.310Z,5.28
2023-04-05T16:15:00.211Z,5.40
2023-04-05T16:20:02.289Z,5.48
2023-04-05T16:25:04.706Z,5.39
2023-04-05T16:30:07.528Z,5.31
2023-04-05T16:35:09.657Z,5.33
2023-04-05T16:40:11.847Z,5.35
2023-04-05T16:45:13.868Z,4.93
2023-04-05T16:50:15.816Z,4.86
2023-04-05T16:55:17.753Z,4.78
2023-04-05T17:00:19.987Z,4.69
2023-04-05T17:05:21.836Z,4.62
2023-04-05T17:10:23.713Z,4.44
2023-04-05T17:15:26.383Z,4.21
2023-04-05T17:20:28.393Z,4.00
2023-04-05T17:25:31.399Z,3.82
2023-04-05T17:30:33.444Z,3.65
2023-04-05T17:35:35.536Z,3.43
2023-04-05T17:40:37.524Z,3.19
2023-04-05T17:45:39.596Z,2.97
2023-04-05T17:50:41.511Z,2.90
2023-04-05T17:55:43.807Z,2.71
2023-04-05T18:00:45.700Z,2.59
2023-04-05T18:05:54.917Z,2.48
2023-04-05T18:11:00.095Z,2.44
2023-04-05T18:16:02.154Z,2.40
2023-04-05T18:21:04.685Z,2.38
2023-04-05T18:26:07.916Z,2.21
2023-04-05T18:31:10.218Z,2.01
2023-04-05T18:36:12.986Z,1.76
2023-04-05T18:41:15.340Z,1.63
2023-04-05T18:46:18.901Z,1.29
2023-04-05T18:51:22.488Z,0.97
2023-04-05T18:56:24.484Z,0.77
2023-04-05T19:01:26.477Z,0.67
2023-04-05T19:06:28.412Z,0.71
2023-04-05T19:11:30.374Z,0.96
2023-04-05T19:16:32.298Z,1.17
2023-04-05T19:21:34.199Z,1.12
2023-04-05T19:26:36.392Z,1.06
2023-04-05T19:31:39.992Z,0.81
2023-04-05T19:36:41.959Z,0.52
2023-04-05T19:41:43.889Z,0.42
2023-04-05T19:46:46.107Z,0.33
2023-04-05T19:51:48.195Z,0.31
2023-04-05T19:56:50.073Z,0.04
2023-04-05T20:01:52.013Z,-0.14
2023-04-05T20:06:56.500Z,-0.30
2023-04-05T20:12:03.837Z,-0.48
2023-04-05T20:17:06.421Z,-0.73
2023-04-05T20:22:09.378Z,-0.93
2023-04-05T20:27:12.327Z,-1.05
2023-04-05T20:32:15.118Z,-1.18
2023-04-05T20:37:17.019Z,-1.28
2023-04-05T20:42:18.878Z,-1.33
2023-04-05T20:47:20.807Z,-1.31
2023-04-05T20:52:22.690Z,-1.25
2023-04-05T20:57:24.573Z,-1.22
2023-04-05T21:02:26.690Z,-1.07
2023-04-05T21:07:28.633Z,-0.94
2023-04-05T21:12:30.506Z,-0.82
2023-04-05T21:17:33.821Z,-0.75
2023-04-05T21:22:35.766Z,-0.58
2023-04-05T21:27:37.636Z,-0.51
2023-04-05T21:32:39.602Z,-0.41
2023-04-05T21:37:41.484Z,-0.37
2023-04-05T21:42:43.398Z,-0.38
2023-04-05T21:47:45.273Z,-0.43
2023-04-05T21:52:47.197Z,-0.39
2023-04-05T21:57:49.041Z,-0.38
2023-04-05T22:02:51.034Z,-0.32
2023-04-05T22:07:52.921Z,-0.36
2023-04-05T22:12:55.164Z,-0.30
2023-04-05T22:17:57.061Z,-0.20
2023-04-05T22:22:58.996Z,-0.09
2023-04-05T22:28:01.136Z,-0.07
2023-04-05T22:33:03.436Z,-0.04
2023-04-05T22:38:05.416Z,0.01
2023-04-05T22:43:07.395Z,-0.07
2023-04-05T22:48:09.266Z,-0.12
2023-04-05T22:53:11.454Z,-0.06
2023-04-05T22:58:13.831Z,-0.01
2023-04-05T23:03:15.885Z,0.00
2023-04-05T23:08:17.979Z,-0.06
2023-04-05T23:13:21.429Z,-0.05
2023-04-05T23:18:23.333Z,0.02
2023-04-05T23:23:25.901Z,0.00
2023-04-05T23:28:27.780Z,0.04
2023-04-05T23:33:29.637Z,0.07
2023-04-05T23:38:31.673Z,0.08
2023-04-05T23:43:33.697Z,0.01
2023-04-05T23:48:35.657Z,-0.15
2023-04-05T23:53:37.779Z,-0.15
2023-04-05T23:58:42.312Z,-0.16
